Data Viewer
| City | State | Eastern Time | Source | Temp | DewPt | RH | BP | 5 Min Precip | Wind Speed | Wind Dir | 5 Min Wind Max | 5 Min Wind Max Dir |
|---|---|---|---|---|---|---|---|---|---|---|---|---|
| Nantucket | MA | 2026-05-05 23:35 | ASOS | 54 | 52 | 94 | 29.97 | 21 | SSW | |||
| Nantucket | MA | 2026-05-06 15:53 | ASOS | 55 | 51 | 86 | 29.87 | 20 | S | |||
| Nantucket | MA | 2026-05-06 16:20 | ASOS | 55 | 52 | 88 | 29.86 | 20 | S | |||
| Nantucket | MA | 2026-05-06 16:15 | ASOS | 55 | 52 | 88 | 29.86 | 20 | S | |||
| Nantucket | MA | 2026-05-06 16:10 | ASOS | 55 | 52 | 88 | 29.86 | 22 | S | |||
| Nantucket | MA | 2026-05-06 16:05 | ASOS | 55 | 52 | 88 | 29.87 | 21 | S | |||
| Nantucket | MA | 2026-05-06 16:00 | ASOS | 55 | 52 | 88 | 29.88 | 21 | S | |||
| Nantucket | MA | 2026-05-06 15:55 | ASOS | 55 | 52 | 88 | 29.88 | 20 | S | |||
| Nantucket | MA | 2026-05-06 15:50 | ASOS | 55 | 52 | 88 | 29.87 | 21 | S | |||
| Nantucket | MA | 2026-05-06 16:30 | ASOS | 55 | 52 | 88 | 29.86 | 20 | S | |||
| Nantucket | MA | 2026-05-06 15:45 | ASOS | 55 | 52 | 88 | 29.87 | 23 | S | |||
| Nantucket | MA | 2026-05-06 15:40 | ASOS | 55 | 52 | 88 | 29.87 | 22 | S | |||
| Nantucket | MA | 2026-05-06 15:30 | ASOS | 55 | 50 | 82 | 29.88 | 21 | S | |||
| Nantucket | MA | 2026-05-06 15:25 | ASOS | 55 | 50 | 82 | 29.88 | 21 | S | |||
| Nantucket | MA | 2026-05-06 15:20 | ASOS | 55 | 52 | 88 | 29.88 | 21 | S | |||
| Nantucket | MA | 2026-05-06 15:10 | ASOS | 55 | 52 | 88 | 29.88 | 21 | S | |||
| Nantucket | MA | 2026-05-06 16:25 | ASOS | 55 | 52 | 88 | 29.86 | 21 | S | |||
| Nantucket | MA | 2026-05-06 16:35 | ASOS | 55 | 50 | 82 | 29.86 | 20 | S | |||
| Nantucket | MA | 2026-05-06 14:55 | ASOS | 55 | 52 | 88 | 29.89 | 21 | S | |||
| Nantucket | MA | 2026-05-06 17:25 | ASOS | 55 | 52 | 88 | 29.85 | 21 | S | |||
| Nantucket | MA | 2026-05-06 18:00 | ASOS | 55 | 52 | 88 | 29.84 | 21 | S | |||
| Nantucket | MA | 2026-05-06 17:50 | ASOS | 55 | 52 | 88 | 29.84 | 22 | S | |||
| Nantucket | MA | 2026-05-06 17:45 | ASOS | 55 | 52 | 88 | 29.84 | 21 | S | |||
| Nantucket | MA | 2026-05-06 17:40 | ASOS | 55 | 52 | 88 | 29.85 | 21 | S | |||
| Nantucket | MA | 2026-05-06 17:35 | ASOS | 54 | 52 | 94 | 29.85 | 20 | S | |||
| Nantucket | MA | 2026-05-06 17:30 | ASOS | 54 | 52 | 94 | 29.85 | 20 | S | |||
| Nantucket | MA | 2026-05-06 17:20 | ASOS | 54 | 52 | 94 | 29.85 | 23 | S | |||
| Nantucket | MA | 2026-05-06 16:40 | ASOS | 55 | 52 | 88 | 29.87 | 18 | S | |||
| Nantucket | MA | 2026-05-06 17:05 | ASOS | 55 | 52 | 88 | 29.86 | 21 | S | |||
| Nantucket | MA | 2026-05-06 17:00 | ASOS | 55 | 50 | 82 | 29.86 | 20 | S | |||
| Nantucket | MA | 2026-05-06 16:55 | ASOS | 55 | 50 | 82 | 29.86 | 18 | S | |||
| Nantucket | MA | 2026-05-06 16:53 | ASOS | 55 | 50 | 83 | 29.86 | 20 | S | |||
| Nantucket | MA | 2026-05-06 16:50 | ASOS | 55 | 50 | 82 | 29.86 | 20 | S | |||
| Nantucket | MA | 2026-05-06 16:45 | ASOS | 55 | 52 | 88 | 29.86 | 20 | S | |||
| Nantucket | MA | 2026-05-06 15:05 | ASOS | 55 | 52 | 88 | 29.88 | 20 | S | |||
| Nantucket | MA | 2026-05-06 14:53 | ASOS | 56 | 51 | 84 | 29.89 | 22 | S | |||
| Nantucket | MA | 2026-05-06 18:10 | ASOS | 55 | 52 | 88 | 29.84 | 23 | S | |||
| Nantucket | MA | 2026-05-06 12:45 | ASOS | 59 | 52 | 77 | 29.95 | 21 | S | |||
| Nantucket | MA | 2026-05-06 13:10 | ASOS | 57 | 52 | 82 | 29.93 | 20 | S | |||
| Nantucket | MA | 2026-05-06 13:05 | ASOS | 55 | 50 | 82 | 29.94 | 20 | S | |||
| Nantucket | MA | 2026-05-06 13:00 | ASOS | 55 | 50 | 82 | 29.94 | 22 | S | |||
| Nantucket | MA | 2026-05-06 12:55 | ASOS | 57 | 52 | 82 | 29.94 | 22 | S | |||
| Nantucket | MA | 2026-05-06 12:53 | ASOS | 58 | 51 | 78 | 29.94 | 21 | S | |||
| Nantucket | MA | 2026-05-06 12:50 | ASOS | 59 | 52 | 77 | 29.94 | 20 | S | |||
| Nantucket | MA | 2026-05-06 12:40 | ASOS | 59 | 52 | 77 | 29.94 | 22 | S | |||
| Nantucket | MA | 2026-05-06 13:20 | ASOS | 57 | 50 | 77 | 29.93 | 22 | S | |||
| Nantucket | MA | 2026-05-06 12:35 | ASOS | 59 | 52 | 77 | 29.94 | 20 | S | |||
| Nantucket | MA | 2026-05-06 12:30 | ASOS | 59 | 52 | 77 | 29.94 | 23 | S | |||
| Nantucket | MA | 2026-05-06 12:25 | ASOS | 59 | 52 | 77 | 29.94 | 22 | S | |||
| Nantucket | MA | 2026-05-06 12:20 | ASOS | 61 | 52 | 72 | 29.95 | 22 | S | |||
| Nantucket | MA | 2026-05-06 12:15 | ASOS | 61 | 52 | 72 | 29.95 | 22 | S | |||
| Nantucket | MA | 2026-05-06 12:10 | ASOS | 59 | 52 | 77 | 29.95 | 24 | S | |||
| Nantucket | MA | 2026-05-06 13:15 | ASOS | 57 | 50 | 77 | 29.93 | 20 | S | |||
| Nantucket | MA | 2026-05-06 13:25 | ASOS | 55 | 50 | 82 | 29.93 | 21 | S | |||
| Nantucket | MA | 2026-05-06 14:50 | ASOS | 55 | 52 | 88 | 29.89 | 21 | S | |||
| Nantucket | MA | 2026-05-06 14:15 | ASOS | 55 | 52 | 88 | 29.91 | 23 | S | |||
| Nantucket | MA | 2026-05-06 14:45 | ASOS | 55 | 52 | 88 | 29.90 | 21 | S | |||
| Nantucket | MA | 2026-05-06 14:40 | ASOS | 55 | 52 | 88 | 29.90 | 21 | S | |||
| Nantucket | MA | 2026-05-06 14:35 | ASOS | 57 | 52 | 82 | 29.90 | 21 | S | |||
| Nantucket | MA | 2026-05-06 14:30 | ASOS | 57 | 52 | 82 | 29.90 | 22 | S | |||
| Nantucket | MA | 2026-05-06 14:25 | ASOS | 57 | 52 | 82 | 29.91 | 22 | S | |||
| Nantucket | MA | 2026-05-06 14:20 | ASOS | 57 | 52 | 82 | 29.91 | 22 | S | |||
| Nantucket | MA | 2026-05-06 14:05 | ASOS | 55 | 50 | 82 | 29.92 | 23 | S | |||
| Nantucket | MA | 2026-05-06 13:30 | ASOS | 57 | 52 | 82 | 29.92 | 21 | S | |||
| Nantucket | MA | 2026-05-06 14:00 | ASOS | 57 | 50 | 77 | 29.91 | 22 | S | |||
| Nantucket | MA | 2026-05-06 13:55 | ASOS | 57 | 52 | 82 | 29.92 | 21 | S | |||
| Nantucket | MA | 2026-05-06 13:53 | ASOS | 57 | 50 | 77 | 29.92 | 20 | S | |||
| Nantucket | MA | 2026-05-06 13:50 | ASOS | 57 | 52 | 82 | 29.92 | 22 | S | |||
| Nantucket | MA | 2026-05-06 13:45 | ASOS | 57 | 52 | 82 | 29.92 | 23 | S | |||
| Nantucket | MA | 2026-05-06 13:40 | ASOS | 57 | 52 | 82 | 29.92 | 23 | S | |||
| Nantucket | MA | 2026-05-06 13:35 | ASOS | 57 | 52 | 82 | 29.92 | 23 | S | |||
| Nantucket | MA | 2026-05-06 18:05 | ASOS | 55 | 52 | 88 | 29.84 | 21 | S | |||
| Nantucket | MA | 2026-05-06 18:15 | ASOS | 55 | 52 | 88 | 29.84 | 21 | S | |||
| Nantucket | MA | 2026-05-06 12:00 | ASOS | 59 | 52 | 77 | 29.96 | 22 | S | |||
| Nantucket | MA | 2026-05-06 21:45 | ASOS | 54 | 54 | 100 | 29.81 | 22 | SSW | |||
| Nantucket | MA | 2026-05-06 22:05 | ASOS | 54 | 54 | 100 | 29.80 | 18 | SW | |||
| Nantucket | MA | 2026-05-06 22:00 | ASOS | 54 | 52 | 94 | 29.81 | 17 | SSW | |||
| Nantucket | MA | 2026-05-06 21:55 | ASOS | 54 | 54 | 100 | 29.82 | 21 | WSW | |||
| Nantucket | MA | 2026-05-06 21:53 | ASOS | 54 | 53 | 97 | 29.82 | 17 | WSW | |||
| Nantucket | MA | 2026-05-06 21:50 | ASOS | 54 | 54 | 100 | 29.82 | 22 | SSW | |||
| Nantucket | MA | 2026-05-06 21:48 | ASOS | 54 | 54 | 100 | 29.81 | 21 | SSW | |||
| Nantucket | MA | 2026-05-06 21:40 | ASOS | 55 | 54 | 94 | 29.81 | 24 | SSW | |||
| Nantucket | MA | 2026-05-06 22:15 | ASOS | 54 | 52 | 94 | 29.80 | 21 | SSW | |||
| Nantucket | MA | 2026-05-06 21:35 | ASOS | 55 | 54 | 94 | 29.81 | 29 | SSW | |||
| Nantucket | MA | 2026-05-06 21:31 | ASOS | 54 | 53 | 97 | 29.81 | 24 | SSW | |||
| Nantucket | MA | 2026-05-06 21:30 | ASOS | 54 | 54 | 100 | 29.81 | 24 | SSW | |||
| Nantucket | MA | 2026-05-06 21:25 | ASOS | 54 | 54 | 100 | 29.81 | 22 | SSW | |||
| Nantucket | MA | 2026-05-06 21:24 | ASOS | 54 | 53 | 97 | 29.81 | 21 | SSW | |||
| Nantucket | MA | 2026-05-06 21:20 | ASOS | 54 | 54 | 100 | 29.81 | 22 | SSW | |||
| Nantucket | MA | 2026-05-06 22:10 | ASOS | 54 | 52 | 94 | 29.80 | 18 | SSW | |||
| Nantucket | MA | 2026-05-06 22:20 | ASOS | 54 | 52 | 94 | 29.80 | 18 | SSW | |||
| Nantucket | MA | 2026-05-06 21:10 | ASOS | 54 | 54 | 100 | 29.81 | 24 | S | |||
| Nantucket | MA | 2026-05-06 22:53 | ASOS | 54 | 53 | 97 | 29.79 | 16 | SSW | |||
| Nantucket | MA | 2026-05-06 23:20 | ASOS | 54 | 52 | 94 | 29.79 | 16 | SW | |||
| Nantucket | MA | 2026-05-06 23:15 | ASOS | 54 | 52 | 94 | 29.79 | 15 | SW | |||
| Nantucket | MA | 2026-05-06 23:09 | ASOS | 53 | 52 | 96 | 29.79 | 15 | SSW | |||
| Nantucket | MA | 2026-05-06 23:05 | ASOS | 54 | 52 | 94 | 29.79 | 16 | SSW | |||
| Nantucket | MA | 2026-05-06 23:00 | ASOS | 54 | 54 | 100 | 29.79 | 17 | SSW | |||
| Nantucket | MA | 2026-05-06 22:55 | ASOS | 54 | 54 | 100 | 29.79 | 16 | SSW | |||
| Nantucket | MA | 2026-05-06 22:50 | ASOS | 54 | 54 | 100 | 29.79 | 18 | SSW | |||
| Nantucket | MA | 2026-05-06 22:25 | ASOS | 54 | 54 | 100 | 29.80 | 17 | SSW | |||
| Nantucket | MA | 2026-05-06 22:49 | ASOS | 54 | 54 | 100 | 29.79 | 17 | SW | |||
| Nantucket | MA | 2026-05-06 22:45 | ASOS | 54 | 54 | 100 | 29.79 | 16 | SW | |||
| Nantucket | MA | 2026-05-06 22:40 | ASOS | 54 | 54 | 100 | 29.80 | 17 | SW | |||
| Nantucket | MA | 2026-05-06 22:38 | ASOS | 54 | 53 | 97 | 29.80 | 20 | SW | |||
| Nantucket | MA | 2026-05-06 22:35 | ASOS | 54 | 54 | 100 | 29.80 | 20 | SSW | |||
| Nantucket | MA | 2026-05-06 22:30 | ASOS | 54 | 54 | 100 | 29.80 | 17 | SSW | |||
| Nantucket | MA | 2026-05-06 22:27 | ASOS | 54 | 53 | 97 | 29.80 | 17 | SSW | |||
| Nantucket | MA | 2026-05-06 21:15 | ASOS | 54 | 54 | 100 | 29.81 | 23 | S | |||
| Nantucket | MA | 2026-05-06 21:05 | ASOS | 54 | 54 | 100 | 29.81 | 26 | S | |||
| Nantucket | MA | 2026-05-06 18:20 | ASOS | 54 | 52 | 94 | 29.84 | 21 | S | |||
| Nantucket | MA | 2026-05-06 18:55 | ASOS | 54 | 52 | 94 | 29.84 | 23 | S | |||
| Nantucket | MA | 2026-05-06 19:30 | ASOS | 54 | 52 | 94 | 29.83 | 24 | S | |||
| Nantucket | MA | 2026-05-06 19:25 | ASOS | 54 | 52 | 94 | 29.82 | 23 | S | |||
| Nantucket | MA | 2026-05-06 19:20 | ASOS | 54 | 52 | 94 | 29.83 | 21 | S | |||
| Nantucket | MA | 2026-05-06 19:15 | ASOS | 54 | 52 | 94 | 29.83 | 20 | S | |||
| Nantucket | MA | 2026-05-06 19:05 | ASOS | 54 | 52 | 94 | 29.83 | 21 | S | |||
| Nantucket | MA | 2026-05-06 19:00 | ASOS | 54 | 52 | 94 | 29.83 | 22 | S | |||
| Nantucket | MA | 2026-05-06 18:53 | ASOS | 54 | 51 | 90 | 29.84 | 21 | S | |||
| Nantucket | MA | 2026-05-06 19:35 | ASOS | 54 | 52 | 94 | 29.83 | 26 | S | |||
| Nantucket | MA | 2026-05-06 18:50 | ASOS | 54 | 52 | 94 | 29.84 | 22 | S | |||
| Nantucket | MA | 2026-05-06 18:45 | ASOS | 54 | 52 | 94 | 29.84 | 21 | S | |||
| Nantucket | MA | 2026-05-06 18:40 | ASOS | 54 | 52 | 94 | 29.84 | 20 | S | |||
| Nantucket | MA | 2026-05-06 18:35 | ASOS | 54 | 52 | 94 | 29.84 | 20 | S | |||
| Nantucket | MA | 2026-05-06 18:30 | ASOS | 54 | 52 | 94 | 29.84 | 22 | S | |||
| Nantucket | MA | 2026-05-06 18:25 | ASOS | 54 | 52 | 94 | 29.84 | 21 | S | |||
| Nantucket | MA | 2026-05-06 19:33 | ASOS | 54 | 52 | 93 | 29.83 | 25 | S | |||
| Nantucket | MA | 2026-05-06 19:40 | ASOS | 54 | 52 | 94 | 29.83 | 28 | S | |||
| Nantucket | MA | 2026-05-06 21:00 | ASOS | 54 | 52 | 94 | 29.81 | 23 | S | |||
| Nantucket | MA | 2026-05-06 20:30 | ASOS | 54 | 52 | 94 | 29.81 | 24 | S | |||
| Nantucket | MA | 2026-05-06 20:53 | ASOS | 54 | 52 | 93 | 29.80 | 25 | S | |||
| Nantucket | MA | 2026-05-06 20:50 | ASOS | 54 | 52 | 94 | 29.81 | 22 | S | |||
| Nantucket | MA | 2026-05-06 20:45 | ASOS | 54 | 52 | 94 | 29.81 | 24 | S | |||
| Nantucket | MA | 2026-05-06 20:40 | ASOS | 54 | 52 | 94 | 29.81 | 25 | S | |||
| Nantucket | MA | 2026-05-06 20:36 | ASOS | 54 | 52 | 93 | 29.80 | 25 | S | |||
| Nantucket | MA | 2026-05-06 20:35 | ASOS | 54 | 52 | 94 | 29.80 | 26 | S | |||
| Nantucket | MA | 2026-05-06 20:25 | ASOS | 54 | 52 | 94 | 29.81 | 23 | S | |||
| Nantucket | MA | 2026-05-06 19:50 | ASOS | 54 | 52 | 94 | 29.82 | 24 | S | |||
| Nantucket | MA | 2026-05-06 20:20 | ASOS | 54 | 52 | 94 | 29.80 | 23 | S | |||
| Nantucket | MA | 2026-05-06 20:15 | ASOS | 54 | 52 | 94 | 29.81 | 22 | S | |||
| Nantucket | MA | 2026-05-06 20:10 | ASOS | 54 | 52 | 94 | 29.81 | 22 | S | |||
| Nantucket | MA | 2026-05-06 20:05 | ASOS | 54 | 52 | 94 | 29.81 | 26 | S | |||
| Nantucket | MA | 2026-05-06 20:00 | ASOS | 54 | 52 | 94 | 29.82 | 23 | S | |||
| Nantucket | MA | 2026-05-06 19:55 | ASOS | 54 | 52 | 94 | 29.82 | 23 | S | |||
| Nantucket | MA | 2026-05-06 19:53 | ASOS | 53 | 52 | 96 | 29.82 | 22 | S | |||
| Nantucket | MA | 2026-05-06 12:05 | ASOS | 57 | 52 | 82 | 29.96 | 22 | S | |||
| Nantucket | MA | 2026-05-06 11:55 | ASOS | 57 | 52 | 82 | 29.96 | 22 | SSW | |||
| Nantucket | MA | 2026-05-05 23:40 | ASOS | 54 | 52 | 94 | 29.97 | 20 | SSW | |||
| Nantucket | MA | 2026-05-06 03:45 | ASOS | 54 | 50 | 88 | 29.97 | 17 | SSW | |||
| Nantucket | MA | 2026-05-06 04:15 | ASOS | 54 | 50 | 88 | 29.97 | 17 | SSW | |||
| Nantucket | MA | 2026-05-06 04:10 | ASOS | 54 | 50 | 88 | 29.97 | 16 | SSW | |||
| Nantucket | MA | 2026-05-06 04:00 | ASOS | 54 | 50 | 88 | 29.97 | 16 | SSW | |||
| Nantucket | MA | 2026-05-06 03:55 | ASOS | 54 | 50 | 88 | 29.98 | 16 | SSW | |||
| Nantucket | MA | 2026-05-06 03:53 | ASOS | 53 | 50 | 89 | 29.97 | 16 | SSW | |||
| Nantucket | MA | 2026-05-06 03:50 | ASOS | 54 | 50 | 88 | 29.97 | 16 | SSW | |||
| Nantucket | MA | 2026-05-06 03:40 | ASOS | 54 | 50 | 88 | 29.97 | 18 | SSW | |||
| Nantucket | MA | 2026-05-06 04:25 | ASOS | 54 | 50 | 88 | 29.97 | 17 | SSW | |||
| Nantucket | MA | 2026-05-06 03:35 | ASOS | 54 | 50 | 88 | 29.97 | 16 | SSW | |||
| Nantucket | MA | 2026-05-06 03:30 | ASOS | 54 | 50 | 88 | 29.97 | 17 | SSW | |||
| Nantucket | MA | 2026-05-06 03:25 | ASOS | 54 | 52 | 94 | 29.97 | 16 | SSW | |||
| Nantucket | MA | 2026-05-06 03:20 | ASOS | 54 | 50 | 88 | 29.97 | 17 | SSW | |||
| Nantucket | MA | 2026-05-06 03:15 | ASOS | 54 | 52 | 94 | 29.97 | 17 | SSW | |||
| Nantucket | MA | 2026-05-06 03:10 | ASOS | 54 | 52 | 94 | 29.97 | 18 | SSW | |||
| Nantucket | MA | 2026-05-06 04:20 | ASOS | 54 | 50 | 88 | 29.97 | 17 | SSW | |||
| Nantucket | MA | 2026-05-06 04:30 | ASOS | 54 | 50 | 88 | 29.97 | 17 | SSW | |||
| Nantucket | MA | 2026-05-06 03:00 | ASOS | 54 | 52 | 94 | 29.97 | 20 | SSW | |||
| Nantucket | MA | 2026-05-06 05:10 | ASOS | 52 | 50 | 94 | 29.97 | 18 | SSW | |||
| Nantucket | MA | 2026-05-06 05:40 | ASOS | 54 | 50 | 88 | 29.97 | 20 | SSW | |||
| Nantucket | MA | 2026-05-06 05:35 | ASOS | 54 | 50 | 88 | 29.97 | 18 | SSW | |||
| Nantucket | MA | 2026-05-06 05:30 | ASOS | 54 | 50 | 88 | 29.97 | 20 | SSW | |||
| Nantucket | MA | 2026-05-06 05:25 | ASOS | 52 | 50 | 94 | 29.97 | 18 | SSW | |||
| Nantucket | MA | 2026-05-06 05:20 | ASOS | 52 | 50 | 94 | 29.97 | 18 | SSW | |||
| Nantucket | MA | 2026-05-06 05:15 | ASOS | 52 | 50 | 94 | 29.96 | 17 | SSW | |||
| Nantucket | MA | 2026-05-06 05:05 | ASOS | 52 | 50 | 94 | 29.97 | 16 | SSW | |||
| Nantucket | MA | 2026-05-06 04:35 | ASOS | 52 | 50 | 94 | 29.97 | 17 | SSW | |||
| Nantucket | MA | 2026-05-06 05:00 | ASOS | 52 | 50 | 94 | 29.97 | 16 | SSW | |||
| Nantucket | MA | 2026-05-06 04:55 | ASOS | 52 | 50 | 94 | 29.97 | 16 | SSW | |||
| Nantucket | MA | 2026-05-06 04:53 | ASOS | 52 | 50 | 93 | 29.97 | 16 | SSW | |||
| Nantucket | MA | 2026-05-06 04:50 | ASOS | 52 | 50 | 94 | 29.97 | 17 | SSW | |||
| Nantucket | MA | 2026-05-06 04:45 | ASOS | 52 | 50 | 94 | 29.97 | 16 | SSW | |||
| Nantucket | MA | 2026-05-06 04:40 | ASOS | 52 | 50 | 94 | 29.97 | 17 | SSW | |||
| Nantucket | MA | 2026-05-06 03:05 | ASOS | 54 | 52 | 94 | 29.96 | 20 | SSW | |||
| Nantucket | MA | 2026-05-06 02:55 | ASOS | 54 | 52 | 94 | 29.97 | 18 | SSW | |||
| Nantucket | MA | 2026-05-06 05:50 | ASOS | 54 | 50 | 88 | 29.97 | 16 | SSW | |||
| Nantucket | MA | 2026-05-06 00:30 | ASOS | 54 | 50 | 88 | 29.97 | 20 | SSW | |||
| Nantucket | MA | 2026-05-06 01:00 | ASOS | 54 | 52 | 94 | 29.97 | 20 | SSW | |||
| Nantucket | MA | 2026-05-06 00:53 | ASOS | 53 | 50 | 89 | 29.97 | 20 | SSW | |||
| Nantucket | MA | 2026-05-06 00:50 | ASOS | 54 | 50 | 88 | 29.97 | 17 | SSW | |||
| Nantucket | MA | 2026-05-06 00:45 | ASOS | 54 | 50 | 88 | 29.97 | 20 | SSW | |||
| Nantucket | MA | 2026-05-06 00:40 | ASOS | 54 | 50 | 88 | 29.97 | 18 | SSW | |||
| Nantucket | MA | 2026-05-06 00:35 | ASOS | 54 | 50 | 88 | 29.97 | 21 | SSW | |||
| Nantucket | MA | 2026-05-06 00:15 | ASOS | 54 | 50 | 88 | 29.97 | 21 | SSW | |||
| Nantucket | MA | 2026-05-06 01:15 | ASOS | 54 | 50 | 88 | 29.97 | 20 | SSW | |||
| Nantucket | MA | 2026-05-06 00:10 | ASOS | 54 | 52 | 94 | 29.97 | 21 | SSW | |||
| Nantucket | MA | 2026-05-06 00:00 | ASOS | 52 | 52 | 100 | 29.97 | 21 | SSW | |||
| Nantucket | MA | 2026-05-05 23:55 | ASOS | 52 | 52 | 100 | 29.98 | 21 | SSW | |||
| Nantucket | MA | 2026-05-05 23:53 | ASOS | 52 | 51 | 97 | 29.98 | 18 | SSW | |||
| Nantucket | MA | 2026-05-05 23:50 | ASOS | 52 | 52 | 100 | 29.98 | 20 | SSW | |||
| Nantucket | MA | 2026-05-05 23:45 | ASOS | 52 | 52 | 100 | 29.97 | 20 | SSW | |||
| Nantucket | MA | 2026-05-06 01:05 | ASOS | 54 | 52 | 94 | 29.97 | 20 | SSW | |||
| Nantucket | MA | 2026-05-06 01:25 | ASOS | 54 | 52 | 94 | 29.97 | 18 | SSW | |||
| Nantucket | MA | 2026-05-06 02:53 | ASOS | 53 | 51 | 93 | 29.97 | 20 | SSW | |||
| Nantucket | MA | 2026-05-06 02:15 | ASOS | 52 | 50 | 94 | 29.97 | 17 | SSW | |||
| Nantucket | MA | 2026-05-06 02:50 | ASOS | 54 | 52 | 94 | 29.97 | 18 | SSW | |||
| Nantucket | MA | 2026-05-06 02:45 | ASOS | 54 | 52 | 94 | 29.97 | 20 | SSW | |||
| Nantucket | MA | 2026-05-06 02:40 | ASOS | 54 | 52 | 94 | 29.97 | 17 | SSW | |||
| Nantucket | MA | 2026-05-06 02:35 | ASOS | 54 | 52 | 94 | 29.97 | 20 | SSW | |||
| Nantucket | MA | 2026-05-06 02:25 | ASOS | 54 | 52 | 94 | 29.97 | 17 | SSW | |||
| Nantucket | MA | 2026-05-06 02:20 | ASOS | 54 | 52 | 94 | 29.97 | 16 | SSW | |||
| Nantucket | MA | 2026-05-06 02:10 | ASOS | 54 | 52 | 94 | 29.97 | 16 | SSW | |||
| Nantucket | MA | 2026-05-06 01:30 | ASOS | 54 | 52 | 94 | 29.97 | 20 | SSW | |||
| Nantucket | MA | 2026-05-06 02:05 | ASOS | 54 | 50 | 88 | 29.97 | 18 | SSW | |||
| Nantucket | MA | 2026-05-06 02:00 | ASOS | 54 | 50 | 88 | 29.97 | 16 | SSW | |||
| Nantucket | MA | 2026-05-06 01:55 | ASOS | 54 | 50 | 88 | 29.97 | 18 | SSW | |||
| Nantucket | MA | 2026-05-06 01:53 | ASOS | 53 | 50 | 89 | 29.97 | 17 | SSW | |||
| Nantucket | MA | 2026-05-06 01:50 | ASOS | 54 | 50 | 88 | 29.97 | 17 | SSW | |||
| Nantucket | MA | 2026-05-06 01:45 | ASOS | 54 | 50 | 88 | 29.97 | 18 | SSW | |||
| Nantucket | MA | 2026-05-06 01:35 | ASOS | 54 | 50 | 88 | 29.97 | 20 | SSW | |||
| Nantucket | MA | 2026-05-06 05:45 | ASOS | 54 | 50 | 88 | 29.97 | 18 | SSW | |||
| Nantucket | MA | 2026-05-06 05:53 | ASOS | 53 | 50 | 89 | 29.97 | 16 | SSW | |||
| Nantucket | MA | 2026-05-06 11:53 | ASOS | 58 | 51 | 78 | 29.96 | 22 | SSW | |||
| Nantucket | MA | 2026-05-06 09:35 | ASOS | 57 | 52 | 82 | 29.96 | 22 | S | |||
| Nantucket | MA | 2026-05-06 10:10 | ASOS | 57 | 52 | 82 | 29.97 | 21 | S | |||
| Nantucket | MA | 2026-05-06 10:05 | ASOS | 57 | 52 | 82 | 29.97 | 21 | S | |||
| Nantucket | MA | 2026-05-06 10:00 | ASOS | 57 | 52 | 82 | 29.97 | 23 | SSW | |||
| Nantucket | MA | 2026-05-06 09:53 | ASOS | 58 | 51 | 78 | 29.97 | 21 | S | |||
| Nantucket | MA | 2026-05-06 09:50 | ASOS | 57 | 52 | 82 | 29.96 | 23 | S | |||
| Nantucket | MA | 2026-05-06 09:40 | ASOS | 57 | 52 | 82 | 29.96 | 23 | S | |||
| Nantucket | MA | 2026-05-06 09:30 | ASOS | 57 | 52 | 82 | 29.96 | 25 | SSW | |||
| Nantucket | MA | 2026-05-06 10:25 | ASOS | 59 | 52 | 77 | 29.96 | 23 | S | |||
| Nantucket | MA | 2026-05-06 09:25 | ASOS | 57 | 52 | 82 | 29.96 | 24 | S | |||
| Nantucket | MA | 2026-05-06 09:20 | ASOS | 57 | 52 | 82 | 29.96 | 23 | S | |||
| Nantucket | MA | 2026-05-06 09:15 | ASOS | 57 | 52 | 82 | 29.96 | 22 | S | |||
| Nantucket | MA | 2026-05-06 09:10 | ASOS | 57 | 52 | 82 | 29.96 | 22 | S | |||
| Nantucket | MA | 2026-05-06 09:05 | ASOS | 57 | 52 | 82 | 29.96 | 24 | S | |||
| Nantucket | MA | 2026-05-06 09:00 | ASOS | 57 | 52 | 82 | 29.96 | 23 | S | |||
| Nantucket | MA | 2026-05-06 10:20 | ASOS | 57 | 52 | 82 | 29.97 | 23 | S | |||
| Nantucket | MA | 2026-05-06 10:30 | ASOS | 57 | 52 | 82 | 29.96 | 24 | S | |||
| Nantucket | MA | 2026-05-06 08:53 | ASOS | 57 | 51 | 81 | 29.96 | 22 | S | |||
| Nantucket | MA | 2026-05-06 11:20 | ASOS | 57 | 52 | 82 | 29.95 | 22 | S | |||
| Nantucket | MA | 2026-05-06 11:50 | ASOS | 59 | 52 | 77 | 29.96 | 24 | S | |||
| Nantucket | MA | 2026-05-06 11:45 | ASOS | 59 | 52 | 77 | 29.96 | 23 | S | |||
| Nantucket | MA | 2026-05-06 11:40 | ASOS | 57 | 52 | 82 | 29.96 | 22 | S | |||
| Nantucket | MA | 2026-05-06 11:35 | ASOS | 57 | 52 | 82 | 29.96 | 23 | S | |||
| Nantucket | MA | 2026-05-06 11:30 | ASOS | 57 | 52 | 82 | 29.96 | 22 | S | |||
| Nantucket | MA | 2026-05-06 11:25 | ASOS | 57 | 52 | 82 | 29.96 | 23 | S | |||
| Nantucket | MA | 2026-05-06 11:10 | ASOS | 57 | 52 | 82 | 29.95 | 22 | S | |||
| Nantucket | MA | 2026-05-06 10:35 | ASOS | 57 | 52 | 82 | 29.96 | 22 | S | |||
| Nantucket | MA | 2026-05-06 11:05 | ASOS | 57 | 52 | 82 | 29.95 | 22 | S | |||
| Nantucket | MA | 2026-05-06 11:00 | ASOS | 57 | 52 | 82 | 29.95 | 22 | S | |||
| Nantucket | MA | 2026-05-06 10:55 | ASOS | 59 | 52 | 77 | 29.95 | 24 | S | |||
| Nantucket | MA | 2026-05-06 10:53 | ASOS | 59 | 52 | 78 | 29.96 | 23 | S | |||
| Nantucket | MA | 2026-05-06 10:50 | ASOS | 57 | 52 | 82 | 29.96 | 22 | S | |||
| Nantucket | MA | 2026-05-06 10:45 | ASOS | 57 | 52 | 82 | 29.96 | 22 | S | |||
| Nantucket | MA | 2026-05-06 10:40 | ASOS | 57 | 52 | 82 | 29.96 | 22 | S | |||
| Nantucket | MA | 2026-05-06 08:55 | ASOS | 57 | 52 | 82 | 29.96 | 21 | S | |||
| Nantucket | MA | 2026-05-06 08:45 | ASOS | 55 | 52 | 88 | 29.96 | 20 | S | |||
| Nantucket | MA | 2026-05-06 05:55 | ASOS | 52 | 50 | 94 | 29.97 | 16 | SSW | |||
| Nantucket | MA | 2026-05-06 06:35 | ASOS | 54 | 52 | 94 | 29.97 | 20 | SSW | |||
| Nantucket | MA | 2026-05-06 07:05 | ASOS | 55 | 52 | 88 | 29.96 | 21 | SSW | |||
| Nantucket | MA | 2026-05-06 06:55 | ASOS | 55 | 52 | 88 | 29.96 | 20 | SSW | |||
| Nantucket | MA | 2026-05-06 06:53 | ASOS | 55 | 51 | 86 | 29.96 | 22 | SSW | |||
| Nantucket | MA | 2026-05-06 06:50 | ASOS | 55 | 52 | 88 | 29.96 | 21 | SSW | |||
| Nantucket | MA | 2026-05-06 06:45 | ASOS | 54 | 52 | 94 | 29.96 | 21 | SSW | |||
| Nantucket | MA | 2026-05-06 06:40 | ASOS | 54 | 52 | 94 | 29.96 | 20 | SSW | |||
| Nantucket | MA | 2026-05-06 06:30 | ASOS | 54 | 52 | 94 | 29.97 | 22 | SSW | |||
| Nantucket | MA | 2026-05-06 07:15 | ASOS | 55 | 52 | 88 | 29.97 | 21 | S | |||
| Nantucket | MA | 2026-05-06 06:25 | ASOS | 54 | 52 | 94 | 29.97 | 18 | SSW | |||
| Nantucket | MA | 2026-05-06 06:20 | ASOS | 54 | 52 | 94 | 29.97 | 20 | SSW | |||
| Nantucket | MA | 2026-05-06 06:15 | ASOS | 54 | 52 | 94 | 29.97 | 20 | SSW | |||
| Nantucket | MA | 2026-05-06 06:10 | ASOS | 54 | 52 | 94 | 29.97 | 18 | SSW | |||
| Nantucket | MA | 2026-05-06 06:05 | ASOS | 54 | 50 | 88 | 29.97 | 16 | SSW | |||
| Nantucket | MA | 2026-05-06 06:00 | ASOS | 52 | 50 | 94 | 29.97 | 17 | SSW | |||
| Nantucket | MA | 2026-05-06 07:10 | ASOS | 55 | 52 | 88 | 29.96 | 22 | SSW | |||
| Nantucket | MA | 2026-05-06 07:20 | ASOS | 55 | 52 | 88 | 29.96 | 21 | S | |||
| Nantucket | MA | 2026-05-06 08:40 | ASOS | 55 | 52 | 88 | 29.96 | 20 | S | |||
| Nantucket | MA | 2026-05-06 08:05 | ASOS | 55 | 52 | 88 | 29.97 | 20 | S | |||
| Nantucket | MA | 2026-05-06 08:35 | ASOS | 55 | 52 | 88 | 29.97 | 20 | S | |||
| Nantucket | MA | 2026-05-06 08:30 | ASOS | 55 | 52 | 88 | 29.97 | 22 | S | |||
| Nantucket | MA | 2026-05-06 08:25 | ASOS | 55 | 52 | 88 | 29.97 | 21 | S | |||
| Nantucket | MA | 2026-05-06 08:20 | ASOS | 55 | 52 | 88 | 29.97 | 22 | S | |||
| Nantucket | MA | 2026-05-06 08:15 | ASOS | 55 | 52 | 88 | 29.97 | 20 | S | |||
| Nantucket | MA | 2026-05-06 08:10 | ASOS | 55 | 52 | 88 | 29.97 | 21 | S | |||
| Nantucket | MA | 2026-05-06 08:00 | ASOS | 55 | 52 | 88 | 29.97 | 18 | S | |||
| Nantucket | MA | 2026-05-06 07:25 | ASOS | 55 | 52 | 88 | 29.96 | 21 | S | |||
| Nantucket | MA | 2026-05-06 07:55 | ASOS | 55 | 52 | 88 | 29.97 | 20 | S | |||
| Nantucket | MA | 2026-05-06 07:53 | ASOS | 55 | 51 | 86 | 29.97 | 20 | S | |||
| Nantucket | MA | 2026-05-06 07:50 | ASOS | 55 | 52 | 88 | 29.97 | 20 | S | |||
| Nantucket | MA | 2026-05-06 07:45 | ASOS | 55 | 52 | 88 | 29.97 | 21 | S | |||
| Nantucket | MA | 2026-05-06 07:40 | ASOS | 55 | 52 | 88 | 29.97 | 20 | S | |||
| Nantucket | MA | 2026-05-06 07:35 | ASOS | 55 | 52 | 88 | 29.97 | 21 | S | |||
| Nantucket | MA | 2026-05-06 07:30 | ASOS | 55 | 52 | 88 | 29.97 | 21 | S | |||
| Nantucket | MA | 2026-05-06 23:25 | ASOS | 54 | 52 | 94 | 29.79 | 15 | SW |
data collection created in 0.041468143463135 (queried in 0.007913) rendered in: 0.00058197975158691

